Dodgeville, Wisconsin
Current Conditions -  °F | °C
As of 11:15 AM on Saturday 20 Dec 2014 (Local Time) from KMRJ Reporting Station
Light Snow Light Snow  
Wind Chill: 23°   Ceiling: 600
Heat Index: 30°   Visibility: 2.5mi
Dew Point: 28°   Wind: 8mph
Humidity: 93%   Direction: 140°SE
Pressure: 30.21"   Gusts: NA
Location:  42.96°N, 90.13°W
Report Text: KMRJ 201715Z AUTO 14007KT 2 1/2SM -SN OVC006 M01/M02 A3021 RMK AO2
Loading
Personal Weather Stations






























Interactive Weather Map New forecast layout! Learn more

10-Day Weather Forecast

Advertisements
Track Severe Weather on mobile